Terminal Aerodrome Forecast
Issued by NWS Dodge City, KS

Home | Current Version | Previous Version | Text Only | Print | Product List | Glossary On
Versions: 1 2 3 4 5 6 7 8 9 10 11 12 13 14 15 16 17 18 19 20 21 22 23 24 25 26 27 28 29 30 31 32 33 34 35 36 37 38 39 40 41 42 43 44 45 46 47 48 49 50
000
FTUS43 KDDC 160722 AAA
TAFDDC
TAF AMD
KDDC 160722Z 1607/1706 03012G20KT 5SM -FZRA OVC003
      TEMPO 1607/1611 2SM FZRA BR
     FM161200 01015G25KT 1SM -FZRAPL OVC003
     FM161500 01013G20KT P6SM OVC003=

USA.gov is the U.S. government's official web portal to all federal, state and local government web resources and services.